Time;durP1;ratioP1;P1;durP2;ratioP2;P2;SDS_P1;SDS_P2;PMS_P1;PMS_P2;Temp;Humidity;BMP_temperature;BMP_pressure;BME280_temperature;BME280_humidity;BME280_pressure;Samples;Min_cycle;Max_cycle;Signal;HPM_P1;HPM_P2
2021/12/02 00:04:18;;;;;;;2.20;0.95;;;16.60;70.20;;;;;;10568024;28;20585;-55
2021/12/02 00:09:19;;;;;;;2.67;0.95;;;16.60;70.30;;;;;;10567752;28;20062;-56
2021/12/02 00:14:24;;;;;;;2.00;0.80;;;16.60;70.30;;;;;;10550723;28;20093;-56
2021/12/02 00:24:51;;;;;;;3.30;0.60;;;16.60;70.40;;;;;;10556647;28;20044;-57
2021/12/02 02:44:39;;;;;;;1.15;0.52;;;16.10;69.80;;;;;;10560911;28;20039;-57
2021/12/02 02:49:40;;;;;;;0.98;0.32;;;16.10;69.90;;;;;;10560983;28;20459;-56
2021/12/02 02:54:41;;;;;;;2.28;0.88;;;16.10;70.10;;;;;;10579346;28;20114;-56
2021/12/02 03:20:37;;;;;;;1.02;0.45;;;16.00;70.20;;;;;;10526928;28;20395;-57
2021/12/02 03:25:37;;;;;;;0.68;0.35;;;16.00;70.10;;;;;;10560648;28;20107;-57
2021/12/02 03:30:38;;;;;;;0.68;0.40;;;16.00;70.20;;;;;;10560631;28;20038;-57
2021/12/02 03:35:39;;;;;;;2.13;0.60;;;15.90;70.10;;;;;;10560538;28;20036;-55
2021/12/02 03:40:39;;;;;;;0.73;0.40;;;15.90;70.20;;;;;;10577370;28;20042;-57
2021/12/02 03:45:40;;;;;;;0.45;0.20;;;15.90;70.20;;;;;;10578126;28;20099;-57
2021/12/02 03:50:41;;;;;;;1.55;0.35;;;15.90;70.20;;;;;;10578495;28;20386;-57
2021/12/02 03:55:42;;;;;;;1.40;0.52;;;15.90;70.20;;;;;;10560148;28;20509;-56
2021/12/02 04:00:42;;;;;;;1.65;0.40;;;15.90;70.20;;;;;;10578150;28;20023;-55
2021/12/02 04:05:43;;;;;;;2.00;0.52;;;15.90;70.10;;;;;;10585811;28;20024;-56
2021/12/02 04:10:45;;;;;;;1.35;0.38;;;15.90;70.20;;;;;;10586081;28;20024;-57
2021/12/02 04:15:50;;;;;;;2.15;0.50;;;15.90;70.10;;;;;;10567839;28;20024;-55
2021/12/02 04:20:51;;;;;;;1.00;0.30;;;15.90;70.10;;;;;;10568102;28;20144;-56
2021/12/02 04:25:52;;;;;;;0.77;0.38;;;15.80;70.00;;;;;;10567022;28;20383;-57
2021/12/02 04:30:52;;;;;;;1.17;0.55;;;15.80;69.90;;;;;;10566685;28;20034;-56
2021/12/02 04:35:53;;;;;;;1.63;0.50;;;15.80;70.10;;;;;;10584844;28;20023;-57
2021/12/02 04:40:55;;;;;;;1.05;0.40;;;15.80;70.20;;;;;;10584800;28;20031;-57
2021/12/02 04:45:56;;;;;;;0.80;0.30;;;15.80;70.20;;;;;;10566134;28;20039;-57
2021/12/02 04:50:57;;;;;;;0.50;0.30;;;15.80;70.20;;;;;;10566361;28;20034;-56
2021/12/02 04:55:57;;;;;;;0.57;0.38;;;15.80;70.20;;;;;;10584220;28;20482;-54
2021/12/02 05:00:58;;;;;;;0.77;0.22;;;15.70;70.20;;;;;;10565512;28;20035;-57
2021/12/02 05:05:59;;;;;;;0.93;0.38;;;15.70;70.10;;;;;;10565627;28;20030;-56
2021/12/02 05:11:00;;;;;;;0.75;0.40;;;15.70;70.20;;;;;;10583536;28;20440;-56
2021/12/02 05:16:00;;;;;;;1.38;0.50;;;15.70;70.20;;;;;;10564471;28;20471;-56
2021/12/02 05:21:01;;;;;;;0.50;0.30;;;15.80;70.30;;;;;;10548215;28;20118;-57
2021/12/02 05:26:02;;;;;;;0.68;0.28;;;15.80;70.20;;;;;;10556425;28;20032;-57
2021/12/02 05:31:03;;;;;;;1.08;0.30;;;15.70;70.10;;;;;;10563633;28;20019;-57
2021/12/02 05:36:04;;;;;;;1.80;0.50;;;15.70;70.20;;;;;;10564649;28;20042;-55
2021/12/02 05:41:05;;;;;;;0.88;0.20;;;15.70;70.10;;;;;;10582422;28;20039;-56
2021/12/02 05:46:06;;;;;;;0.85;0.20;;;15.90;69.80;;;;;;10564145;28;20089;-56
2021/12/02 05:51:07;;;;;;;1.75;0.50;;;16.10;69.10;;;;;;10582190;28;20379;-54
2021/12/02 05:56:08;;;;;;;5.03;0.57;;;16.30;69.00;;;;;;10561226;28;20105;-56
2021/12/02 06:01:09;;;;;;;4.90;0.70;;;16.50;69.80;;;;;;10578656;28;20043;-60
2021/12/02 06:06:10;;;;;;;1.02;0.30;;;16.80;68.90;;;;;;10564412;28;20119;-57
2021/12/02 06:11:10;;;;;;;2.78;0.80;;;17.00;69.40;;;;;;10562415;28;20026;-57
2021/12/02 06:16:11;;;;;;;2.28;0.50;;;17.10;69.00;;;;;;10562900;28;20063;-57
2021/12/02 06:21:12;;;;;;;9.55;0.82;;;17.20;69.10;;;;;;10582558;28;20337;-56
2021/12/02 06:26:12;;;;;;;3.35;0.68;;;17.40;68.90;;;;;;10561624;28;20035;-56
2021/12/02 06:31:13;;;;;;;5.63;0.80;;;17.40;69.10;;;;;;10561898;28;20032;-55
2021/12/02 06:36:14;;;;;;;8.13;0.73;;;17.40;69.60;;;;;;10579938;28;20118;-58
2021/12/02 06:41:16;;;;;;;7.70;0.90;;;17.40;69.50;;;;;;10561987;28;20080;-56
2021/12/02 06:46:16;;;;;;;8.00;0.93;;;17.50;68.90;;;;;;10561778;28;20039;-56
2021/12/02 06:51:19;;;;;;;8.95;0.80;;;17.50;68.60;;;;;;10544093;28;20023;-58
2021/12/02 06:56:20;;;;;;;8.48;1.00;;;17.40;68.80;;;;;;10561403;28;20016;-58
2021/12/02 07:01:20;;;;;;;10.27;0.65;;;17.40;68.10;;;;;;10560156;28;20035;-57
2021/12/02 07:06:21;;;;;;;9.30;1.25;;;17.40;68.00;;;;;;10577787;28;20604;-56
2021/12/02 07:11:22;;;;;;;4.13;0.75;;;17.40;67.50;;;;;;10554861;28;20028;-56
2021/12/02 07:16:23;;;;;;;9.85;1.20;;;17.40;67.20;;;;;;10536616;28;20040;-55
2021/12/02 07:21:25;;;;;;;8.15;0.93;;;17.50;67.30;;;;;;10571507;28;20088;-54
2021/12/02 07:26:25;;;;;;;6.55;0.77;;;17.60;66.80;;;;;;10552892;28;20450;-55
2021/12/02 07:31:34;;;;;;;4.47;0.70;;;17.60;66.50;;;;;;10571406;28;20024;-57
2021/12/02 07:36:36;;;;;;;6.75;1.10;;;17.70;66.20;;;;;;10574106;28;20051;-55
2021/12/02 07:41:40;;;;;;;5.70;0.80;;;17.60;66.00;;;;;;10564629;28;20023;-56
2021/12/02 07:46:41;;;;;;;4.78;0.82;;;17.70;65.80;;;;;;10584944;28;20050;-57
2021/12/02 07:51:49;;;;;;;4.82;0.65;;;17.70;65.70;;;;;;10563980;28;20494;-55
2021/12/02 07:56:50;;;;;;;4.45;1.00;;;17.80;65.90;;;;;;10564046;28;20032;-57
2021/12/02 08:01:51;;;;;;;3.83;1.08;;;17.80;65.60;;;;;;10563384;28;20323;-56
2021/12/02 08:06:51;;;;;;;4.40;1.00;;;17.80;65.70;;;;;;10566139;28;20030;-57
2021/12/02 08:11:54;;;;;;;3.30;0.85;;;17.80;65.50;;;;;;10566736;28;20107;-56
2021/12/02 08:16:54;;;;;;;2.15;0.38;;;17.80;65.50;;;;;;10566610;28;20027;-56
2021/12/02 08:21:55;;;;;;;3.50;0.63;;;17.80;65.50;;;;;;10562752;28;20464;-55
2021/12/02 08:26:56;;;;;;;2.60;0.60;;;17.80;65.40;;;;;;10571386;28;20430;-55
2021/12/02 08:31:56;;;;;;;2.88;0.80;;;17.90;65.50;;;;;;10565808;28;20391;-55
2021/12/02 08:36:57;;;;;;;3.15;0.40;;;17.90;65.30;;;;;;10583590;28;20042;-54
2021/12/02 08:41:58;;;;;;;0.88;0.30;;;17.90;65.40;;;;;;10583626;28;20106;-56
2021/12/02 08:46:59;;;;;;;2.97;1.05;;;17.90;65.40;;;;;;10564496;28;20043;-56
2021/12/02 08:52:00;;;;;;;1.83;0.35;;;17.90;65.30;;;;;;10564053;28;20115;-57
2021/12/02 08:57:01;;;;;;;1.60;0.60;;;18.00;65.20;;;;;;10582852;28;20414;-57
2021/12/02 09:02:02;;;;;;;2.28;0.40;;;18.00;65.20;;;;;;10564503;28;20391;-57
2021/12/02 09:07:04;;;;;;;1.10;0.40;;;18.00;65.10;;;;;;10564422;28;20040;-55
2021/12/02 09:12:07;;;;;;;1.23;0.40;;;18.10;65.00;;;;;;10564621;28;20094;-54
2021/12/02 09:17:08;;;;;;;2.42;0.75;;;18.10;64.90;;;;;;10581835;28;20391;-55
2021/12/02 09:22:08;;;;;;;3.58;0.52;;;18.10;64.80;;;;;;10546674;28;20032;-57
2021/12/02 09:27:09;;;;;;;0.93;0.22;;;18.10;64.90;;;;;;10563477;28;20043;-57
2021/12/02 09:32:11;;;;;;;1.15;0.50;;;18.20;64.70;;;;;;10563209;28;20471;-56
2021/12/02 09:37:12;;;;;;;2.30;0.40;;;18.20;64.80;;;;;;10563211;28;20059;-56
2021/12/02 09:42:14;;;;;;;2.08;0.50;;;18.20;64.60;;;;;;10562418;28;20104;-57
2021/12/02 09:47:16;;;;;;;1.20;0.50;;;18.20;64.80;;;;;;10562969;28;20123;-56
2021/12/02 09:52:19;;;;;;;3.28;0.32;;;18.30;64.60;;;;;;10545512;28;20026;-57
2021/12/02 09:57:25;;;;;;;1.52;0.40;;;18.30;64.70;;;;;;10563300;28;20038;-55
2021/12/02 10:02:26;;;;;;;1.60;0.25;;;18.30;64.50;;;;;;10562307;28;20027;-57
2021/12/02 10:07:42;;;;;;;1.05;0.40;;;18.30;64.60;;;;;;10561756;28;20028;-55
2021/12/02 10:13:19;;;;;;;1.92;0.30;;;18.40;64.40;;;;;;10564397;28;20111;-55
2021/12/02 10:18:24;;;;;;;1.10;0.28;;;18.40;64.50;;;;;;10545708;28;20023;-57
2021/12/02 10:23:28;;;;;;;2.50;0.45;;;18.50;64.20;;;;;;10579812;28;20024;-57
2021/12/02 10:28:41;;;;;;;1.92;0.60;;;18.50;64.20;;;;;;10565693;28;20026;-57
2021/12/02 10:33:50;;;;;;;1.27;0.55;;;18.60;64.20;;;;;;10561887;28;20015;-56
2021/12/02 10:38:53;;;;;;;3.07;0.70;;;18.50;64.20;;;;;;10561929;28;20494;-56
2021/12/02 10:44:28;;;;;;;1.63;0.30;;;18.60;64.20;;;;;;10560289;28;20042;-57
2021/12/02 10:49:47;;;;;;;2.55;0.30;;;18.60;64.30;;;;;;10578305;28;20492;-55
2021/12/02 10:54:56;;;;;;;0.45;0.20;;;18.60;64.20;;;;;;10545556;28;20050;-56
2021/12/02 11:00:12;;;;;;;2.63;0.60;;;18.60;64.30;;;;;;10560592;28;20036;-56
2021/12/02 11:05:28;;;;;;;0.57;0.30;;;18.70;64.20;;;;;;10577983;28;20269;-56
2021/12/02 11:10:39;;;;;;;0.60;0.20;;;18.70;64.30;;;;;;10560803;28;20558;-56
2021/12/02 11:15:40;;;;;;;0.55;0.10;;;18.70;64.30;;;;;;10578369;28;20023;-56
2021/12/02 11:20:58;;;;;;;1.83;0.43;;;18.70;64.40;;;;;;10559969;28;20032;-56
2021/12/02 11:26:05;;;;;;;0.47;0.10;;;18.70;64.40;;;;;;10543663;28;20088;-58
2021/12/02 11:31:19;;;;;;;1.45;0.30;;;18.70;64.60;;;;;;10577623;28;20049;-56
2021/12/02 11:36:23;;;;;;;0.88;0.20;;;18.70;64.50;;;;;;10559510;28;20038;-57
2021/12/02 11:41:24;;;;;;;0.93;0.47;;;18.70;64.60;;;;;;10559376;28;20029;-57
2021/12/02 11:46:25;;;;;;;1.88;0.30;;;18.70;64.50;;;;;;10559571;28;20130;-56
2021/12/02 11:51:26;;;;;;;0.40;0.20;;;18.60;64.50;;;;;;10577094;28;20035;-56
2021/12/02 11:56:27;;;;;;;1.83;0.75;;;18.70;64.40;;;;;;10558982;28;20387;-56
2021/12/02 12:01:28;;;;;;;1.38;0.30;;;18.70;64.50;;;;;;10559155;28;20038;-57
2021/12/02 12:06:31;;;;;;;0.38;0.20;;;18.70;64.50;;;;;;10558806;28;20028;-57
2021/12/02 12:11:34;;;;;;;0.47;0.30;;;18.70;64.30;;;;;;10576860;28;20101;-55
2021/12/02 12:16:42;;;;;;;0.45;0.22;;;18.70;64.40;;;;;;10576784;28;20031;-57
2021/12/02 12:21:52;;;;;;;0.20;0.10;;;18.70;64.40;;;;;;10559261;28;20023;-56
2021/12/02 12:27:08;;;;;;;0.47;0.28;;;18.70;64.40;;;;;;10525728;28;20109;-56
2021/12/02 12:32:19;;;;;;;0.77;0.22;;;18.80;64.40;;;;;;10583818;28;20106;-56
2021/12/02 12:37:24;;;;;;;0.55;0.22;;;18.80;64.50;;;;;;10566465;28;20092;-57
2021/12/02 12:42:24;;;;;;;0.47;0.20;;;18.70;64.40;;;;;;10583229;28;20086;-57
2021/12/02 12:47:40;;;;;;;0.43;0.17;;;18.70;64.40;;;;;;10583370;28;20030;-56
2021/12/02 12:52:41;;;;;;;0.17;0.10;;;18.70;64.40;;;;;;10583556;28;20107;-57
2021/12/02 12:58:11;;;;;;;0.15;0.10;;;18.70;64.50;;;;;;10564647;28;20055;-56
2021/12/02 13:09:00;;;;;;;0.85;0.10;;;18.70;64.50;;;;;;10481844;28;20046;-56
2021/12/02 13:14:04;;;;;;;0.32;0.20;;;18.70;64.50;;;;;;10564704;28;20429;-55
2021/12/02 13:19:14;;;;;;;1.85;0.17;;;18.70;64.40;;;;;;10564235;28;20028;-55
2021/12/02 13:24:19;;;;;;;0.68;0.20;;;18.70;64.40;;;;;;10581510;28;20020;-55
2021/12/02 13:29:25;;;;;;;1.00;0.30;;;18.70;64.40;;;;;;10563568;28;20032;-56
2021/12/02 13:34:29;;;;;;;0.40;0.10;;;18.70;64.30;;;;;;10563005;28;20027;-56
2021/12/02 13:39:32;;;;;;;5.57;0.47;;;18.70;64.40;;;;;;10563189;28;20085;-56
2021/12/02 13:44:46;;;;;;;1.80;0.30;;;18.70;64.30;;;;;;10580695;28;20051;-55
2021/12/02 13:49:54;;;;;;;0.95;0.30;;;18.70;64.30;;;;;;10580807;28;20360;-56
2021/12/02 13:55:28;;;;;;;0.28;0.10;;;18.70;64.30;;;;;;10562988;28;20047;-56
2021/12/02 14:00:31;;;;;;;0.50;0.15;;;18.70;64.30;;;;;;10580289;28;20073;-57
2021/12/02 14:05:36;;;;;;;0.30;0.10;;;18.70;64.30;;;;;;10562213;28;20485;-56
2021/12/02 14:10:38;;;;;;;0.63;0.10;;;18.70;64.20;;;;;;10562056;28;20421;-55
2021/12/02 14:15:46;;;;;;;0.52;0.30;;;18.70;64.30;;;;;;10581121;28;20110;-56
2021/12/02 14:20:50;;;;;;;0.30;0.10;;;18.70;64.30;;;;;;10581018;28;20464;-56
2021/12/02 14:25:55;;;;;;;0.05;0.03;;;18.70;64.30;;;;;;10545642;28;20028;-56
2021/12/02 14:31:04;;;;;;;0.47;0.30;;;18.70;64.30;;;;;;10579062;28;20027;-56
2021/12/02 14:36:12;;;;;;;0.20;0.20;;;18.70;64.20;;;;;;10578883;28;20031;-56
2021/12/02 14:41:21;;;;;;;0.68;0.20;;;18.70;64.30;;;;;;10578959;28;20030;-57
2021/12/02 14:46:33;;;;;;;0.10;0.10;;;18.70;64.10;;;;;;10560095;28;20058;-57
2021/12/02 14:51:54;;;;;;;0.40;0.20;;;18.70;64.10;;;;;;10560699;28;20023;-57
2021/12/02 14:56:56;;;;;;;0.77;0.22;;;18.70;64.00;;;;;;10560949;28;20093;-54
2021/12/02 15:02:15;;;;;;;0.10;0.10;;;18.70;64.00;;;;;;10560156;28;20023;-56
2021/12/02 15:07:28;;;;;;;0.50;0.13;;;18.70;63.90;;;;;;10560061;28;20070;-55
2021/12/02 15:12:31;;;;;;;0.25;0.25;;;18.60;63.90;;;;;;10577951;28;20055;-56
2021/12/02 15:17:38;;;;;;;0.65;0.30;;;18.70;63.80;;;;;;10558811;28;20399;-56
2021/12/02 15:22:40;;;;;;;1.63;0.30;;;18.70;63.80;;;;;;10565984;28;20031;-55
2021/12/02 15:28:10;;;;;;;2.47;0.40;;;18.70;63.50;;;;;;10558045;28;20055;-55
2021/12/02 15:33:16;;;;;;;1.90;0.32;;;18.60;63.90;;;;;;10574042;28;20038;-55
2021/12/02 15:38:17;;;;;;;1.70;0.30;;;18.60;64.20;;;;;;10561633;28;20388;-56
2021/12/02 15:43:33;;;;;;;4.00;0.30;;;18.70;64.20;;;;;;10551349;28;20157;-55
2021/12/02 15:48:33;;;;;;;1.45;0.40;;;18.60;63.80;;;;;;10544046;28;20020;-55
2021/12/02 15:53:34;;;;;;;2.88;0.38;;;18.70;64.00;;;;;;10578837;28;20057;-56
2021/12/02 15:58:35;;;;;;;1.27;0.30;;;18.70;64.00;;;;;;10563591;28;20027;-56
2021/12/02 16:03:39;;;;;;;5.32;0.50;;;18.70;63.80;;;;;;10552309;28;20111;-56
2021/12/02 16:14:01;;;;;;;2.58;0.65;;;18.60;63.20;;;;;;10558599;28;20036;-57
2021/12/02 16:19:01;;;;;;;3.40;0.43;;;18.70;63.20;;;;;;10567710;28;20467;-58
2021/12/02 16:24:02;;;;;;;2.88;0.60;;;18.60;63.50;;;;;;10567083;28;20035;-58
2021/12/02 16:29:04;;;;;;;2.72;0.57;;;18.70;63.50;;;;;;10564839;28;20027;-56
2021/12/02 16:34:05;;;;;;;3.42;0.60;;;18.70;63.10;;;;;;10567150;28;20054;-57
2021/12/02 16:39:06;;;;;;;4.05;0.60;;;18.80;62.90;;;;;;10567617;28;20106;-57
2021/12/02 16:44:07;;;;;;;6.10;1.25;;;18.80;62.90;;;;;;10585417;28;20089;-57
2021/12/02 16:49:08;;;;;;;2.08;0.80;;;18.80;62.70;;;;;;10565415;28;20068;-56
2021/12/02 16:54:09;;;;;;;4.82;2.08;;;18.80;62.70;;;;;;10566766;28;20027;-57
2021/12/02 16:59:09;;;;;;;10.20;0.95;;;18.80;62.70;;;;;;10566663;28;20062;-56
2021/12/02 17:04:11;;;;;;;7.30;1.55;;;18.60;62.40;;;;;;10557309;28;20024;-58
2021/12/02 17:09:12;;;;;;;8.80;1.20;;;18.60;62.30;;;;;;10567113;28;20019;-57
2021/12/02 17:14:13;;;;;;;6.80;1.38;;;18.50;61.80;;;;;;10584238;28;20039;-57
2021/12/02 17:19:13;;;;;;;6.00;1.42;;;18.50;61.60;;;;;;10574297;28;20337;-57
2021/12/02 17:24:14;;;;;;;7.47;1.20;;;18.60;64.50;;;;;;10548720;28;20042;-56
2021/12/02 17:29:15;;;;;;;7.80;1.83;;;18.70;64.00;;;;;;10565639;28;20069;-57
2021/12/02 17:34:16;;;;;;;13.73;1.65;;;18.80;64.50;;;;;;10583683;28;20094;-58
2021/12/02 17:39:16;;;;;;;12.88;2.42;;;18.80;64.30;;;;;;10546451;28;20030;-57
2021/12/02 17:44:17;;;;;;;14.35;1.73;;;18.80;64.00;;;;;;10539404;28;20479;-56
2021/12/02 17:49:19;;;;;;;10.82;1.80;;;18.90;63.50;;;;;;10563741;28;20039;-57
2021/12/02 17:54:21;;;;;;;6.80;1.38;;;18.70;63.40;;;;;;10564995;28;20585;-57
2021/12/02 17:59:22;;;;;;;8.35;1.55;;;18.60;63.50;;;;;;10546548;28;20024;-57
2021/12/02 18:04:22;;;;;;;11.70;1.98;;;18.60;63.50;;;;;;10563256;28;20031;-57
2021/12/02 18:09:23;;;;;;;8.13;1.60;;;18.60;63.10;;;;;;10563707;28;20023;-57
2021/12/02 18:14:25;;;;;;;8.02;1.77;;;18.60;63.40;;;;;;10563798;28;20062;-57
2021/12/02 18:19:25;;;;;;;5.07;1.48;;;18.60;63.10;;;;;;10543074;28;20040;-58
2021/12/02 18:24:26;;;;;;;8.10;1.85;;;18.50;63.10;;;;;;10538525;28;20024;-58
2021/12/02 18:29:27;;;;;;;6.38;1.83;;;18.60;63.20;;;;;;10560107;28;20024;-57
2021/12/02 18:34:28;;;;;;;4.28;1.30;;;18.60;63.20;;;;;;10550916;28;20031;-57
2021/12/02 18:39:29;;;;;;;8.48;1.70;;;18.60;63.00;;;;;;10552931;28;20035;-57
2021/12/02 18:44:30;;;;;;;3.72;1.15;;;18.60;63.00;;;;;;10561201;28;20036;-57
2021/12/02 18:49:30;;;;;;;9.93;1.83;;;18.60;63.00;;;;;;10580603;28;20515;-56
2021/12/02 18:54:31;;;;;;;5.07;1.88;;;18.60;63.10;;;;;;10562165;28;20038;-57
2021/12/02 18:59:32;;;;;;;6.22;1.35;;;18.60;63.00;;;;;;10580325;28;20027;-57
2021/12/02 19:04:33;;;;;;;4.80;1.40;;;18.60;63.10;;;;;;10561803;28;20026;-57
2021/12/02 19:30:43;;;;;;;2.88;1.10;;;18.60;62.90;;;;;;10564524;28;20437;-57
2021/12/02 19:35:44;;;;;;;3.85;1.17;;;18.50;63.00;;;;;;10568071;28;20032;-57
2021/12/02 19:40:44;;;;;;;5.38;1.73;;;18.60;62.90;;;;;;10569600;28;20027;-56
2021/12/02 19:45:45;;;;;;;5.90;1.58;;;18.50;62.90;;;;;;10569190;28;20666;-57
2021/12/02 19:50:46;;;;;;;4.68;1.70;;;18.60;62.80;;;;;;10587763;28;20527;-57
2021/12/02 19:55:47;;;;;;;3.15;1.45;;;18.50;62.90;;;;;;10569112;28;20081;-56
2021/12/02 20:00:48;;;;;;;3.80;1.65;;;18.60;62.80;;;;;;10551778;28;20555;-57
2021/12/02 20:05:49;;;;;;;2.80;1.20;;;18.60;63.00;;;;;;10551850;28;20122;-57
2021/12/02 20:10:50;;;;;;;6.80;1.80;;;18.60;62.90;;;;;;10568502;28;20019;-56
2021/12/02 20:20:52;;;;;;;3.28;1.55;;;18.50;63.60;;;;;;10579666;28;20046;-56
2021/12/02 20:25:54;;;;;;;2.85;1.40;;;18.30;64.70;;;;;;10567809;28;20024;-57
2021/12/02 20:30:55;;;;;;;4.03;1.55;;;18.20;64.40;;;;;;10567674;28;20115;-56
2021/12/02 20:35:55;;;;;;;5.00;1.55;;;18.10;64.70;;;;;;10550877;28;20087;-57
2021/12/02 20:40:57;;;;;;;4.60;1.75;;;18.00;65.50;;;;;;10566893;28;20448;-58
2021/12/02 20:46:02;;;;;;;3.63;1.50;;;17.80;65.50;;;;;;10565208;28;20092;-56
2021/12/02 20:51:07;;;;;;;3.10;1.88;;;17.70;65.70;;;;;;10565676;28;20030;-58
2021/12/02 20:56:12;;;;;;;5.78;2.20;;;17.60;65.60;;;;;;10584652;28;20039;-56
2021/12/02 21:01:13;;;;;;;2.92;1.73;;;17.50;65.80;;;;;;10560916;28;20693;-57
2021/12/02 21:06:14;;;;;;;3.33;1.80;;;17.40;65.80;;;;;;10550034;28;20383;-56
2021/12/02 21:11:17;;;;;;;5.35;2.15;;;17.40;65.80;;;;;;10564638;28;20026;-57
2021/12/02 21:16:19;;;;;;;5.97;1.95;;;17.30;65.80;;;;;;10564045;28;20058;-58
2021/12/02 21:21:21;;;;;;;2.80;1.58;;;17.20;66.00;;;;;;10562688;28;20058;-57
2021/12/02 21:26:21;;;;;;;4.97;2.42;;;17.10;65.80;;;;;;10562227;28;20459;-57
2021/12/02 21:31:22;;;;;;;2.88;1.65;;;17.10;65.60;;;;;;10562582;28;20084;-57
2021/12/02 21:36:39;;;;;;;3.10;1.95;;;17.00;65.70;;;;;;10581947;28;20024;-57
2021/12/02 21:41:40;;;;;;;4.18;2.05;;;16.90;65.60;;;;;;10566008;28;20024;-57
2021/12/02 21:46:44;;;;;;;4.70;2.10;;;16.90;65.60;;;;;;10563276;28;20707;-57
2021/12/02 21:51:50;;;;;;;3.05;1.60;;;16.90;65.60;;;;;;10563832;28;20016;-58
2021/12/02 21:56:53;;;;;;;5.70;2.08;;;16.80;65.50;;;;;;10541669;28;20032;-57
2021/12/02 22:01:54;;;;;;;5.18;2.40;;;16.70;65.40;;;;;;10556060;28;20027;-58
2021/12/02 22:06:56;;;;;;;6.68;3.03;;;16.70;65.20;;;;;;10563188;28;20036;-55
2021/12/02 22:11:57;;;;;;;3.28;1.80;;;16.60;65.20;;;;;;10563200;28;20057;-57
2021/12/02 22:16:59;;;;;;;2.60;1.75;;;16.60;65.30;;;;;;10557608;28;20460;-57
2021/12/02 22:22:03;;;;;;;3.17;1.92;;;16.60;65.40;;;;;;10545748;28;20030;-58
2021/12/02 22:27:04;;;;;;;4.30;1.75;;;16.50;65.60;;;;;;10562378;28;20119;-57
2021/12/02 22:32:07;;;;;;;3.78;2.28;;;16.50;65.50;;;;;;10562369;28;20024;-57
2021/12/02 22:37:19;;;;;;;3.72;2.60;;;16.40;65.70;;;;;;10562135;28;20107;-57
2021/12/02 22:42:21;;;;;;;2.50;1.63;;;16.40;65.70;;;;;;10563514;28;20051;-57
2021/12/02 22:47:22;;;;;;;3.25;2.00;;;16.40;65.70;;;;;;10561757;28;20026;-58
2021/12/02 22:52:23;;;;;;;4.03;1.70;;;16.30;65.50;;;;;;10545886;28;20468;-56
2021/12/02 22:57:24;;;;;;;2.88;1.58;;;16.30;65.50;;;;;;10561497;28;20035;-58
2021/12/02 23:02:26;;;;;;;3.22;1.80;;;16.30;65.60;;;;;;10579029;28;20031;-57
2021/12/02 23:07:27;;;;;;;3.50;2.28;;;16.20;65.50;;;;;;10560938;28;20032;-57
2021/12/02 23:12:28;;;;;;;3.17;1.90;;;16.20;65.50;;;;;;10561119;28;20028;-57
2021/12/02 23:17:30;;;;;;;2.90;1.60;;;16.20;65.40;;;;;;10573743;28;20039;-57
2021/12/02 23:22:33;;;;;;;3.38;1.50;;;16.20;65.50;;;;;;10561116;28;20024;-57
2021/12/02 23:32:58;;;;;;;3.60;2.10;;;16.10;65.50;;;;;;10564109;28;20047;-56
2021/12/02 23:37:59;;;;;;;3.42;1.73;;;16.10;65.30;;;;;;10560793;28;20114;-57
2021/12/02 23:43:00;;;;;;;2.90;1.88;;;16.00;65.30;;;;;;10578549;28;20100;-57
2021/12/02 23:48:01;;;;;;;2.40;1.75;;;16.00;65.30;;;;;;10560192;28;20032;-56
2021/12/02 23:53:03;;;;;;;4.07;2.42;;;16.00;65.50;;;;;;10578499;28;20027;-57
2021/12/02 23:58:04;;;;;;;4.00;2.22;;;15.90;65.30;;;;;;10560205;28;20076;-58
